Time,TemperatureF,DewpointF,PressureIn,WindDirection,WindDirectionDegrees,WindSpeedMPH,WindSpeedGustMPH,Humidity,HourlyPrecipIn,Conditions,Clouds,dailyrainin,SoftwareType,DateUTC
2013-07-01 00:00:00,61.1,52.7,30.06,SSE,153,0.0,0.0,74,0.00,,,0.00,Wunderground v.1.15,2013-07-01 05:00:00,
2013-07-01 00:10:00,60.5,52.5,30.06,SSE,153,0.0,0.0,75,0.00,,,0.00,Wunderground v.1.15,2013-07-01 05:10:00,
2013-07-01 00:15:00,60.2,52.6,30.06,SSE,153,0.0,0.0,76,0.00,,,0.00,Wunderground v.1.15,2013-07-01 05:15:00,
2013-07-01 00:20:00,60.0,52.8,30.06,SSE,153,0.0,0.0,77,0.00,,,0.00,Wunderground v.1.15,2013-07-01 05:20:00,
2013-07-01 00:30:00,59.7,53.5,30.07,SSE,153,0.0,0.0,80,0.00,,,0.00,Wunderground v.1.15,2013-07-01 05:30:00,
2013-07-01 00:35:00,59.5,53.3,30.07,SSE,153,0.0,0.0,80,0.00,,,0.00,Wunderground v.1.15,2013-07-01 05:35:00,
2013-07-01 00:40:00,59.4,53.6,30.07,SSE,153,0.0,0.0,81,0.00,,,0.00,Wunderground v.1.15,2013-07-01 05:40:00,
2013-07-01 00:45:00,59.1,53.3,30.07,SSE,153,0.0,0.0,81,0.00,,,0.00,Wunderground v.1.15,2013-07-01 05:45:00,
2013-07-01 00:50:00,59.1,53.6,30.07,SSE,153,0.0,0.0,82,0.00,,,0.00,Wunderground v.1.15,2013-07-01 05:50:00,
2013-07-01 00:55:00,59.1,53.6,30.07,SSE,153,0.0,0.0,82,0.00,,,0.00,Wunderground v.1.15,2013-07-01 05:55:00,
2013-07-01 01:00:00,59.1,53.3,30.07,SSE,153,0.0,0.0,81,0.00,,,0.00,Wunderground v.1.15,2013-07-01 06:00:00,
2013-07-01 01:10:00,59.0,53.5,30.07,SSE,153,0.0,0.0,82,0.00,,,0.00,Wunderground v.1.15,2013-07-01 06:10:00,
2013-07-01 01:15:00,59.0,53.8,30.07,SSE,153,0.0,0.0,83,0.00,,,0.00,Wunderground v.1.15,2013-07-01 06:15:00,
2013-07-01 01:20:00,59.0,53.8,30.07,SSE,153,0.0,0.0,83,0.00,,,0.00,Wunderground v.1.15,2013-07-01 06:20:00,
2013-07-01 01:25:00,58.9,53.7,30.07,SSE,153,0.0,0.0,83,0.00,,,0.00,Wunderground v.1.15,2013-07-01 06:25:00,
2013-07-01 01:30:00,58.8,53.6,30.07,SSE,153,0.0,0.0,83,0.00,,,0.00,Wunderground v.1.15,2013-07-01 06:30:00,
2013-07-01 01:35:00,58.7,53.2,30.07,SSE,153,0.0,0.0,82,0.00,,,0.00,Wunderground v.1.15,2013-07-01 06:35:00,
2013-07-01 01:45:00,58.5,53.0,30.08,SSE,153,0.0,0.0,82,0.00,,,0.00,Wunderground v.1.15,2013-07-01 06:45:00,
2013-07-01 01:50:00,58.3,52.8,30.08,SSE,153,0.0,0.0,82,0.00,,,0.00,Wunderground v.1.15,2013-07-01 06:50:00,
2013-07-01 01:55:00,58.1,52.6,30.08,SSE,153,0.0,0.0,82,0.00,,,0.00,Wunderground v.1.15,2013-07-01 06:55:00,
2013-07-01 02:00:00,58.0,52.9,30.08,SSE,153,0.0,0.0,83,0.00,,,0.00,Wunderground v.1.15,2013-07-01 07:00:00,
2013-07-01 02:10:00,57.8,52.7,30.08,SSE,153,0.0,0.0,83,0.00,,,0.00,Wunderground v.1.15,2013-07-01 07:10:00,
2013-07-01 02:15:00,57.7,52.6,30.09,SSE,153,0.0,0.0,83,0.00,,,0.00,Wunderground v.1.15,2013-07-01 07:15:00,
2013-07-01 02:20:00,57.5,52.4,30.09,SSE,153,0.0,0.0,83,0.00,,,0.00,Wunderground v.1.15,2013-07-01 07:20:00,
2013-07-01 02:25:00,57.3,52.5,30.09,SSE,153,0.0,0.0,84,0.00,,,0.00,Wunderground v.1.15,2013-07-01 07:25:00,
2013-07-01 02:30:00,57.3,52.5,30.09,SSE,153,0.0,0.0,84,0.00,,,0.00,Wunderground v.1.15,2013-07-01 07:30:00,
2013-07-01 02:35:00,57.2,52.4,30.09,SSE,153,0.0,0.0,84,0.00,,,0.00,Wunderground v.1.15,2013-07-01 07:35:00,
2013-07-01 02:40:00,57.0,52.2,30.09,SSE,153,0.0,0.0,84,0.00,,,0.00,Wunderground v.1.15,2013-07-01 07:40:00,
2013-07-01 02:45:00,56.7,51.9,30.09,SSE,153,0.0,0.0,84,0.00,,,0.00,Wunderground v.1.15,2013-07-01 07:45:00,
2013-07-01 02:55:00,56.2,51.4,30.09,SSE,153,0.0,0.0,84,0.00,,,0.00,Wunderground v.1.15,2013-07-01 07:55:00,
2013-07-01 03:00:00,55.9,51.1,30.09,SSE,153,0.0,0.0,84,0.00,,,0.00,Wunderground v.1.15,2013-07-01 08:00:00,
2013-07-01 03:10:00,55.6,50.8,30.09,SSE,153,0.0,0.0,84,0.00,,,0.00,Wunderground v.1.15,2013-07-01 08:10:00,
2013-07-01 03:15:00,55.5,51.1,30.09,SSE,153,0.0,0.0,85,0.00,,,0.00,Wunderground v.1.15,2013-07-01 08:15:00,
2013-07-01 03:25:00,55.7,51.6,30.09,SSE,153,0.0,0.0,86,0.00,,,0.00,Wunderground v.1.15,2013-07-01 08:25:00,
2013-07-01 03:30:00,55.7,51.6,30.09,SSE,153,0.0,0.0,86,0.00,,,0.00,Wunderground v.1.15,2013-07-01 08:30:00,
2013-07-01 03:35:00,55.6,51.5,30.09,SSE,153,0.0,0.0,86,0.00,,,0.00,Wunderground v.1.15,2013-07-01 08:35:00,
2013-07-01 03:40:00,55.5,51.4,30.09,SSE,153,0.0,0.0,86,0.00,,,0.00,Wunderground v.1.15,2013-07-01 08:40:00,
2013-07-01 03:50:00,55.1,51.0,30.09,SSE,153,0.0,0.0,86,0.00,,,0.00,Wunderground v.1.15,2013-07-01 08:50:00,
2013-07-01 03:55:00,54.9,51.1,30.09,SSE,153,0.0,0.0,87,0.00,,,0.00,Wunderground v.1.15,2013-07-01 08:55:00,
2013-07-01 04:00:00,54.7,50.9,30.09,SSE,153,0.0,0.0,87,0.00,,,0.00,Wunderground v.1.15,2013-07-01 09:00:00,
2013-07-01 04:10:00,54.3,50.5,30.09,SSE,153,0.0,0.0,87,0.00,,,0.00,Wunderground v.1.15,2013-07-01 09:10:00,
2013-07-01 04:15:00,54.1,50.6,30.09,SSE,153,0.0,0.0,88,0.00,,,0.00,Wunderground v.1.15,2013-07-01 09:15:00,
2013-07-01 04:20:00,54.0,50.5,30.09,SSE,153,0.0,0.0,88,0.00,,,0.00,Wunderground v.1.15,2013-07-01 09:20:00,
2013-07-01 04:25:00,54.0,50.8,30.09,SSE,153,0.0,0.0,89,0.00,,,0.00,Wunderground v.1.15,2013-07-01 09:25:00,
2013-07-01 04:30:00,54.0,50.8,30.09,SSE,153,0.0,0.0,89,0.00,,,0.00,Wunderground v.1.15,2013-07-01 09:30:00,
2013-07-01 04:35:00,53.9,50.7,30.09,SSE,153,0.0,0.0,89,0.00,,,0.00,Wunderground v.1.15,2013-07-01 09:35:00,
2013-07-01 04:45:00,53.8,50.9,30.09,SSE,153,0.0,0.0,90,0.00,,,0.00,Wunderground v.1.15,2013-07-01 09:45:00,
2013-07-01 04:50:00,53.8,50.9,30.09,SSE,153,0.0,0.0,90,0.00,,,0.00,Wunderground v.1.15,2013-07-01 09:50:00,
2013-07-01 05:00:00,53.7,50.8,30.09,SSE,153,0.0,0.0,90,0.00,,,0.00,Wunderground v.1.15,2013-07-01 10:00:00,
2013-07-01 05:10:00,53.6,50.7,30.10,SSE,153,0.0,0.0,90,0.00,,,0.00,Wunderground v.1.15,2013-07-01 10:10:00,
2013-07-01 05:20:00,53.4,50.5,30.10,SSE,153,0.0,0.0,90,0.00,,,0.00,Wunderground v.1.15,2013-07-01 10:20:00,
2013-07-01 05:25:00,53.2,50.3,30.10,SSE,153,0.0,0.0,90,0.00,,,0.00,Wunderground v.1.15,2013-07-01 10:25:00,
2013-07-01 05:30:00,53.1,50.2,30.10,SSE,153,0.0,0.0,90,0.00,,,0.00,Wunderground v.1.15,2013-07-01 10:30:00,
2013-07-01 05:40:00,52.8,49.9,30.10,SSE,153,0.0,0.0,90,0.00,,,0.00,Wunderground v.1.15,2013-07-01 10:40:00,
2013-07-01 05:45:00,52.7,49.8,30.10,SSE,153,0.0,0.0,90,0.00,,,0.00,Wunderground v.1.15,2013-07-01 10:45:00,
2013-07-01 05:50:00,52.6,50.0,30.11,SSE,153,0.0,0.0,91,0.00,,,0.00,Wunderground v.1.15,2013-07-01 10:50:00,
2013-07-01 05:55:00,52.5,49.9,30.11,SSE,153,0.0,0.0,91,0.00,,,0.00,Wunderground v.1.15,2013-07-01 10:55:00,
2013-07-01 06:00:00,52.4,49.8,30.11,SSE,153,0.0,0.0,91,0.00,,,0.00,Wunderground v.1.15,2013-07-01 11:00:00,
2013-07-01 06:10:00,52.4,49.8,30.11,SSE,153,0.0,0.0,91,0.00,,,0.00,Wunderground v.1.15,2013-07-01 11:10:00,
2013-07-01 06:15:00,52.4,49.8,30.11,SSE,153,0.0,0.0,91,0.00,,,0.00,Wunderground v.1.15,2013-07-01 11:15:00,
2013-07-01 06:25:00,52.5,50.2,30.11,SSE,153,0.0,0.0,92,0.00,,,0.00,Wunderground v.1.15,2013-07-01 11:25:00,
2013-07-01 06:30:00,52.7,50.4,30.11,SSE,153,0.0,0.0,92,0.00,,,0.00,Wunderground v.1.15,2013-07-01 11:30:00,
2013-07-01 06:35:00,52.8,50.5,30.12,SSE,153,0.0,0.0,92,0.00,,,0.00,Wunderground v.1.15,2013-07-01 11:35:00,
2013-07-01 06:40:00,52.9,50.6,30.12,SSE,153,0.0,0.0,92,0.00,,,0.00,Wunderground v.1.15,2013-07-01 11:40:00,
2013-07-01 06:50:00,53.0,50.7,30.12,SSE,153,0.0,0.0,92,0.00,,,0.00,Wunderground v.1.15,2013-07-01 11:50:00,
2013-07-01 06:55:00,53.2,50.9,30.12,SSE,153,0.0,0.0,92,0.00,,,0.00,Wunderground v.1.15,2013-07-01 11:55:00,
2013-07-01 07:00:00,53.5,51.2,30.12,SSE,153,0.0,0.0,92,0.00,,,0.00,Wunderground v.1.15,2013-07-01 12:00:00,
2013-07-01 07:10:00,54.5,52.5,30.12,SSE,153,0.0,0.0,93,0.00,,,0.00,Wunderground v.1.15,2013-07-01 12:10:00,
2013-07-01 07:15:00,55.3,53.3,30.13,SSE,153,0.0,0.0,93,0.00,,,0.00,Wunderground v.1.15,2013-07-01 12:15:00,
2013-07-01 07:25:00,57.8,54.6,30.12,SSE,153,0.0,0.0,89,0.00,,,0.00,Wunderground v.1.15,2013-07-01 12:25:00,
2013-07-01 07:30:00,59.0,54.8,30.13,SSE,153,0.0,0.0,86,0.00,,,0.00,Wunderground v.1.15,2013-07-01 12:30:00,
2013-07-01 07:35:00,60.2,55.3,30.13,SSE,153,0.0,0.0,84,0.00,,,0.00,Wunderground v.1.15,2013-07-01 12:35:00,
2013-07-01 07:40:00,60.8,54.9,30.13,SSE,153,0.0,0.0,81,0.00,,,0.00,Wunderground v.1.15,2013-07-01 12:40:00,
2013-07-01 07:50:00,61.4,55.5,30.13,SSE,153,0.0,0.0,81,0.00,,,0.00,Wunderground v.1.15,2013-07-01 12:50:00,
2013-07-01 08:00:00,63.9,56.2,30.13,SSE,153,0.0,0.0,76,0.00,,,0.00,Wunderground v.1.15,2013-07-01 13:00:00,
2013-07-01 08:10:00,65.2,55.6,30.13,SSE,153,0.0,0.0,71,0.00,,,0.00,Wunderground v.1.15,2013-07-01 13:10:00,
2013-07-01 08:20:00,65.4,55.7,30.13,SSE,153,0.0,0.0,71,0.00,,,0.00,Wunderground v.1.15,2013-07-01 13:20:00,
2013-07-01 08:25:00,65.7,56.0,30.13,SSE,153,0.0,0.0,71,0.00,,,0.00,Wunderground v.1.15,2013-07-01 13:25:00,
2013-07-01 08:30:00,66.3,56.6,30.13,SSE,153,0.0,0.0,71,0.00,,,0.00,Wunderground v.1.15,2013-07-01 13:30:00,
2013-07-01 08:35:00,67.2,57.1,30.13,SSE,153,0.0,0.0,70,0.00,,,0.00,Wunderground v.1.15,2013-07-01 13:35:00,
2013-07-01 08:40:00,68.0,58.6,30.13,SSE,153,0.0,0.0,72,0.00,,,0.00,Wunderground v.1.15,2013-07-01 13:40:00,
2013-07-01 08:45:00,68.9,56.6,30.13,SSE,153,0.0,0.0,65,0.00,,,0.00,Wunderground v.1.15,2013-07-01 13:45:00,
2013-07-01 08:55:00,69.5,56.8,30.13,SSE,153,0.0,0.0,64,0.00,,,0.00,Wunderground v.1.15,2013-07-01 13:55:00,
2013-07-01 09:00:00,70.4,58.1,30.13,SSE,153,0.0,0.0,65,0.00,,,0.00,Wunderground v.1.15,2013-07-01 14:00:00,
2013-07-01 09:10:00,71.6,57.4,30.13,SSE,153,0.0,0.0,61,0.00,,,0.00,Wunderground v.1.15,2013-07-01 14:10:00,
2013-07-01 09:15:00,72.2,58.0,30.13,SSE,153,0.0,0.0,61,0.00,,,0.00,Wunderground v.1.15,2013-07-01 14:15:00,
2013-07-01 09:20:00,72.7,58.5,30.13,SSE,153,0.0,0.0,61,0.00,,,0.00,Wunderground v.1.15,2013-07-01 14:20:00,
2013-07-01 09:25:00,72.9,57.3,30.13,SSE,153,0.0,0.0,58,0.00,,,0.00,Wunderground v.1.15,2013-07-01 14:25:00,
2013-07-01 09:30:00,73.1,57.9,30.13,SSE,153,0.0,0.0,59,0.00,,,0.00,Wunderground v.1.15,2013-07-01 14:30:00,
2013-07-01 09:35:00,73.2,57.5,30.13,SSE,153,0.0,0.0,58,0.00,,,0.00,Wunderground v.1.15,2013-07-01 14:35:00,
2013-07-01 09:40:00,73.2,57.5,30.13,SSE,153,0.0,0.0,58,0.00,,,0.00,Wunderground v.1.15,2013-07-01 14:40:00,
2013-07-01 09:45:00,73.4,57.2,30.13,SSE,153,0.0,0.0,57,0.00,,,0.00,Wunderground v.1.15,2013-07-01 14:45:00,
2013-07-01 09:55:00,74.1,56.4,30.13,SSE,153,0.0,0.0,54,0.00,,,0.00,Wunderground v.1.15,2013-07-01 14:55:00,
2013-07-01 10:00:00,74.4,56.7,30.13,SSE,153,0.0,0.0,54,0.00,,,0.00,Wunderground v.1.15,2013-07-01 15:00:00,
2013-07-01 10:10:00,75.8,54.7,30.13,SSE,153,0.0,0.0,48,0.00,,,0.00,Wunderground v.1.15,2013-07-01 15:10:00,
2013-07-01 10:15:00,76.3,54.0,30.13,SSE,153,0.0,0.0,46,0.00,,,0.00,Wunderground v.1.15,2013-07-01 15:15:00,
2013-07-01 10:20:00,76.7,54.4,30.13,SSE,153,0.0,0.0,46,0.00,,,0.00,Wunderground v.1.15,2013-07-01 15:20:00,
2013-07-01 10:30:00,77.2,54.2,30.12,SSW,205,0.0,0.0,45,0.00,,,0.00,Wunderground v.1.15,2013-07-01 15:30:00,
2013-07-01 10:35:00,77.1,54.7,30.12,SSW,205,0.0,0.0,46,0.00,,,0.00,Wunderground v.1.15,2013-07-01 15:35:00,
2013-07-01 10:40:00,76.7,55.0,30.12,SSW,212,0.0,2.0,47,0.00,,,0.00,Wunderground v.1.15,2013-07-01 15:40:00,
2013-07-01 10:45:00,76.7,55.5,30.12,SSW,213,1.0,2.0,48,0.00,,,0.00,Wunderground v.1.15,2013-07-01 15:45:00,
2013-07-01 10:50:00,77.0,55.8,30.12,SSW,211,1.0,1.0,48,0.00,,,0.00,Wunderground v.1.15,2013-07-01 15:50:00,
2013-07-01 11:00:00,77.4,54.4,30.12,South,175,1.0,2.0,45,0.00,,,0.00,Wunderground v.1.15,2013-07-01 16:00:00,
2013-07-01 11:10:00,76.7,55.5,30.12,SW,232,1.0,1.0,48,0.00,,,0.00,Wunderground v.1.15,2013-07-01 16:10:00,
2013-07-01 11:20:00,76.4,54.7,30.12,SW,232,1.0,1.0,47,0.00,,,0.00,Wunderground v.1.15,2013-07-01 16:20:00,
2013-07-01 11:25:00,76.4,54.7,30.12,West,259,1.0,1.0,47,0.00,,,0.00,Wunderground v.1.15,2013-07-01 16:25:00,
2013-07-01 11:30:00,76.3,54.0,30.12,WSW,254,1.0,1.0,46,0.00,,,0.00,Wunderground v.1.15,2013-07-01 16:30:00,
2013-07-01 11:35:00,77.0,54.6,30.12,WSW,253,1.0,1.0,46,0.00,,,0.00,Wunderground v.1.15,2013-07-01 16:35:00,
2013-07-01 11:40:00,77.6,54.0,30.12,SE,142,1.0,1.0,44,0.00,,,0.00,Wunderground v.1.15,2013-07-01 16:40:00,
2013-07-01 11:45:00,78.0,54.3,30.12,SSW,213,2.0,2.0,44,0.00,,,0.00,Wunderground v.1.15,2013-07-01 16:45:00,
2013-07-01 11:55:00,78.4,54.7,30.12,SSW,213,0.0,1.0,44,0.00,,,0.00,Wunderground v.1.15,2013-07-01 16:55:00,
2013-07-01 12:00:00,78.7,55.0,30.12,SSW,206,1.0,1.0,44,0.00,,,0.00,Wunderground v.1.15,2013-07-01 17:00:00,
2013-07-01 12:10:00,79.1,54.0,30.12,SW,229,1.0,2.0,42,0.00,,,0.00,Wunderground v.1.15,2013-07-01 17:10:00,
2013-07-01 12:15:00,78.9,54.5,30.12,West,276,2.0,3.0,43,0.00,,,0.00,Wunderground v.1.15,2013-07-01 17:15:00,
2013-07-01 12:20:00,78.7,54.3,30.12,WSW,241,2.0,3.0,43,0.00,,,0.00,Wunderground v.1.15,2013-07-01 17:20:00,
2013-07-01 12:25:00,78.7,55.0,30.12,WSW,243,2.0,3.0,44,0.00,,,0.00,Wunderground v.1.15,2013-07-01 17:25:00,
2013-07-01 12:30:00,78.7,55.6,30.11,SW,230,1.0,4.0,45,0.00,,,0.00,Wunderground v.1.15,2013-07-01 17:30:00,
2013-07-01 12:35:00,78.7,56.8,30.11,SW,223,1.0,4.0,47,0.00,,,0.00,Wunderground v.1.15,2013-07-01 17:35:00,
2013-07-01 12:40:00,79.0,54.6,30.11,SSW,203,2.0,2.0,43,0.00,,,0.00,Wunderground v.1.15,2013-07-01 17:40:00,
2013-07-01 12:50:00,78.4,52.7,30.11,SW,236,1.0,1.0,41,0.00,,,0.00,Wunderground v.1.15,2013-07-01 17:50:00,
2013-07-01 12:55:00,78.4,55.3,30.11,SE,127,1.0,4.0,45,0.00,,,0.00,Wunderground v.1.15,2013-07-01 17:55:00,
2013-07-01 13:00:00,78.5,53.5,30.11,ESE,119,3.0,3.0,42,0.00,,,0.00,Wunderground v.1.15,2013-07-01 18:00:00,
2013-07-01 13:10:00,78.4,55.3,30.11,SSW,194,1.0,1.0,45,0.00,,,0.00,Wunderground v.1.15,2013-07-01 18:10:00,
2013-07-01 13:15:00,78.7,54.3,30.11,SSE,149,2.0,5.0,43,0.00,,,0.00,Wunderground v.1.15,2013-07-01 18:15:00,
2013-07-01 13:25:00,79.5,52.4,30.11,SE,144,1.0,2.0,39,0.00,,,0.00,Wunderground v.1.15,2013-07-01 18:25:00,
2013-07-01 13:30:00,79.2,54.8,30.10,ESE,104,1.0,7.0,43,0.00,,,0.00,Wunderground v.1.15,2013-07-01 18:30:00,
2013-07-01 13:35:00,79.3,54.2,30.10,ESE,110,3.0,7.0,42,0.00,,,0.00,Wunderground v.1.15,2013-07-01 18:35:00,
2013-07-01 13:45:00,80.3,54.5,30.10,SSE,167,2.0,3.0,41,0.00,,,0.00,Wunderground v.1.15,2013-07-01 18:45:00,
2013-07-01 13:50:00,80.6,54.7,30.10,SW,216,2.0,3.0,41,0.00,,,0.00,Wunderground v.1.15,2013-07-01 18:50:00,
2013-07-01 13:55:00,80.1,55.6,30.10,SE,140,2.0,3.0,43,0.00,,,0.00,Wunderground v.1.15,2013-07-01 18:55:00,
2013-07-01 14:00:00,79.4,54.3,30.10,SE,143,2.0,2.0,42,0.00,,,0.00,Wunderground v.1.15,2013-07-01 19:00:00,
2013-07-01 14:10:00,79.7,51.8,30.10,SE,132,2.0,2.0,38,0.00,,,0.00,Wunderground v.1.15,2013-07-01 19:10:00,
2013-07-01 14:15:00,79.5,52.4,30.10,SE,132,2.0,2.0,39,0.00,,,0.00,Wunderground v.1.15,2013-07-01 19:15:00,
2013-07-01 14:20:00,79.8,53.3,30.10,ESE,105,2.0,4.0,40,0.00,,,0.00,Wunderground v.1.15,2013-07-01 19:20:00,
2013-07-01 14:25:00,80.0,52.8,30.09,SE,129,3.0,4.0,39,0.00,,,0.00,Wunderground v.1.15,2013-07-01 19:25:00,
2013-07-01 14:30:00,79.6,52.5,30.09,SE,127,3.0,3.0,39,0.00,,,0.00,Wunderground v.1.15,2013-07-01 19:30:00,
2013-07-01 14:35:00,79.6,53.8,30.09,SE,128,3.0,3.0,41,0.00,,,0.00,Wunderground v.1.15,2013-07-01 19:35:00,
2013-07-01 14:40:00,79.5,53.7,30.09,SE,134,2.0,2.0,41,0.00,,,0.00,Wunderground v.1.15,2013-07-01 19:40:00,
2013-07-01 14:50:00,79.9,54.1,30.09,SSE,147,2.0,4.0,41,0.00,,,0.00,Wunderground v.1.15,2013-07-01 19:50:00,
2013-07-01 14:55:00,80.0,54.2,30.08,SE,132,2.0,4.0,41,0.00,,,0.00,Wunderground v.1.15,2013-07-01 19:55:00,
2013-07-01 15:00:00,80.1,53.6,30.08,East,86,2.0,2.0,40,0.00,,,0.00,Wunderground v.1.15,2013-07-01 20:00:00,
2013-07-01 15:10:00,80.3,53.1,30.08,SSE,165,2.0,2.0,39,0.00,,,0.00,Wunderground v.1.15,2013-07-01 20:10:00,
2013-07-01 15:15:00,80.6,54.0,30.08,SSW,195,1.0,2.0,40,0.00,,,0.00,Wunderground v.1.15,2013-07-01 20:15:00,
2013-07-01 15:20:00,80.9,53.6,30.08,SSE,158,1.0,1.0,39,0.00,,,0.00,Wunderground v.1.15,2013-07-01 20:20:00,
2013-07-01 15:25:00,80.9,53.6,30.08,SSE,150,1.0,1.0,39,0.00,,,0.00,Wunderground v.1.15,2013-07-01 20:25:00,
2013-07-01 15:30:00,80.4,53.2,30.08,SE,144,1.0,1.0,39,0.00,,,0.00,Wunderground v.1.15,2013-07-01 20:30:00,
2013-07-01 15:35:00,80.0,54.8,30.08,SW,216,1.0,1.0,42,0.00,,,0.00,Wunderground v.1.15,2013-07-01 20:35:00,
2013-07-01 15:40:00,80.2,53.0,30.08,East,90,2.0,2.0,39,0.00,,,0.00,Wunderground v.1.15,2013-07-01 20:40:00,
2013-07-01 15:50:00,80.7,52.7,30.08,SSE,148,2.0,2.0,38,0.00,,,0.00,Wunderground v.1.15,2013-07-01 20:50:00,
2013-07-01 15:55:00,81.0,53.0,30.08,SE,140,2.0,3.0,38,0.00,,,0.00,Wunderground v.1.15,2013-07-01 20:55:00,
2013-07-01 16:00:00,81.2,53.2,30.08,SSE,161,2.0,5.0,38,0.00,,,0.00,Wunderground v.1.15,2013-07-01 21:00:00,
2013-07-01 16:10:00,81.8,53.7,30.08,SSE,156,2.0,2.0,38,0.00,,,0.00,Wunderground v.1.15,2013-07-01 21:10:00,
2013-07-01 16:15:00,82.2,54.1,30.08,SSE,149,1.0,2.0,38,0.00,,,0.00,Wunderground v.1.15,2013-07-01 21:15:00,
2013-07-01 16:20:00,82.0,53.9,30.08,ESE,105,2.0,2.0,38,0.00,,,0.00,Wunderground v.1.15,2013-07-01 21:20:00,
2013-07-01 16:30:00,81.5,52.7,30.07,ENE,78,2.0,2.0,37,0.00,,,0.00,Wunderground v.1.15,2013-07-01 21:30:00,
2013-07-01 16:35:00,81.7,52.9,30.07,NE,49,2.0,4.0,37,0.00,,,0.00,Wunderground v.1.15,2013-07-01 21:35:00,
2013-07-01 16:45:00,80.7,53.4,30.07,ESE,119,2.0,2.0,39,0.00,,,0.00,Wunderground v.1.15,2013-07-01 21:45:00,
2013-07-01 16:50:00,80.7,53.4,30.07,ESE,120,0.0,0.0,39,0.00,,,0.00,Wunderground v.1.15,2013-07-01 21:50:00,
2013-07-01 16:55:00,80.8,52.8,30.07,ESE,120,0.0,1.0,38,0.00,,,0.00,Wunderground v.1.15,2013-07-01 21:55:00,
2013-07-01 17:00:00,81.0,53.7,30.07,SW,220,0.0,0.0,39,0.00,,,0.00,Wunderground v.1.15,2013-07-01 22:00:00,
2013-07-01 17:10:00,81.4,56.1,30.07,SSE,155,1.0,3.0,42,0.00,,,0.00,Wunderground v.1.15,2013-07-01 22:10:00,
2013-07-01 17:15:00,81.4,52.6,30.07,SE,138,1.0,3.0,37,0.00,,,0.00,Wunderground v.1.15,2013-07-01 22:15:00,
2013-07-01 17:25:00,81.3,53.3,30.07,ESE,102,1.0,3.0,38,0.00,,,0.00,Wunderground v.1.15,2013-07-01 22:25:00,
2013-07-01 17:30:00,81.3,54.0,30.07,SSE,163,1.0,2.0,39,0.00,,,0.00,Wunderground v.1.15,2013-07-01 22:30:00,
2013-07-01 17:35:00,80.8,52.8,30.07,SSE,148,3.0,3.0,38,0.00,,,0.00,Wunderground v.1.15,2013-07-01 22:35:00,
2013-07-01 17:40:00,80.5,53.3,30.07,SE,142,3.0,3.0,39,0.00,,,0.00,Wunderground v.1.15,2013-07-01 22:40:00,
2013-07-01 17:45:00,80.5,51.8,30.06,SE,143,2.0,3.0,37,0.00,,,0.00,Wunderground v.1.15,2013-07-01 22:45:00,
2013-07-01 17:50:00,80.8,53.5,30.06,SE,144,1.0,1.0,39,0.00,,,0.00,Wunderground v.1.15,2013-07-01 22:50:00,
2013-07-01 17:55:00,81.6,54.9,30.06,South,184,1.0,1.0,40,0.00,,,0.00,Wunderground v.1.15,2013-07-01 22:55:00,
2013-07-01 18:00:00,81.9,54.5,30.06,South,182,1.0,1.0,39,0.00,,,0.00,Wunderground v.1.15,2013-07-01 23:00:00,
2013-07-01 18:10:00,82.3,55.6,30.06,South,169,0.0,0.0,40,0.00,,,0.00,Wunderground v.1.15,2013-07-01 23:10:00,
2013-07-01 18:20:00,81.8,53.7,30.05,South,171,0.0,2.0,38,0.00,,,0.00,Wunderground v.1.15,2013-07-01 23:20:00,
2013-07-01 18:30:00,81.4,55.4,30.05,SW,218,1.0,1.0,41,0.00,,,0.00,Wunderground v.1.15,2013-07-01 23:30:00,
2013-07-01 18:35:00,81.0,55.7,30.05,South,171,1.0,1.0,42,0.00,,,0.00,Wunderground v.1.15,2013-07-01 23:35:00,
2013-07-01 18:45:00,81.2,54.6,30.05,South,171,0.0,2.0,40,0.00,,,0.00,Wunderground v.1.15,2013-07-01 23:45:00,
2013-07-01 18:50:00,80.9,53.6,30.05,SSE,165,0.0,0.0,39,0.00,,,0.00,Wunderground v.1.15,2013-07-01 23:50:00,
2013-07-01 18:55:00,80.6,53.4,30.05,SSE,165,1.0,1.0,39,0.00,,,0.00,Wunderground v.1.15,2013-07-01 23:55:00,
2013-07-01 19:00:00,80.4,53.2,30.05,SSE,150,1.0,3.0,39,0.00,,,0.00,Wunderground v.1.15,2013-07-02 00:00:00,
2013-07-01 19:10:00,80.7,53.4,30.04,SSE,151,0.0,0.0,39,0.00,,,0.00,Wunderground v.1.15,2013-07-02 00:10:00,
2013-07-01 19:15:00,80.9,54.3,30.04,SSE,150,0.0,0.0,40,0.00,,,0.00,Wunderground v.1.15,2013-07-02 00:15:00,
2013-07-01 19:20:00,80.9,52.9,30.04,SSE,151,0.0,1.0,38,0.00,,,0.00,Wunderground v.1.15,2013-07-02 00:20:00,
2013-07-01 19:25:00,80.7,52.7,30.04,SSE,149,0.0,1.0,38,0.00,,,0.00,Wunderground v.1.15,2013-07-02 00:25:00,
2013-07-01 19:30:00,80.7,54.1,30.04,SSE,150,0.0,0.0,40,0.00,,,0.00,Wunderground v.1.15,2013-07-02 00:30:00,
2013-07-01 19:35:00,81.0,53.7,30.04,SSE,150,0.0,0.0,39,0.00,,,0.00,Wunderground v.1.15,2013-07-02 00:35:00,
2013-07-01 19:40:00,81.2,54.6,30.04,SSE,150,0.0,0.0,40,0.00,,,0.00,Wunderground v.1.15,2013-07-02 00:40:00,
2013-07-01 19:45:00,80.9,55.0,30.03,SE,142,0.0,0.0,41,0.00,,,0.00,Wunderground v.1.15,2013-07-02 00:45:00,
2013-07-01 19:50:00,80.8,54.9,30.03,SE,142,0.0,0.0,41,0.00,,,0.00,Wunderground v.1.15,2013-07-02 00:50:00,
2013-07-01 19:55:00,80.5,54.6,30.04,SE,142,0.0,0.0,41,0.00,,,0.00,Wunderground v.1.15,2013-07-02 00:55:00,
2013-07-01 20:00:00,80.3,55.1,30.03,SE,142,0.0,0.0,42,0.00,,,0.00,Wunderground v.1.15,2013-07-02 01:00:00,
2013-07-01 20:10:00,80.1,56.8,30.04,SE,142,0.0,1.0,45,0.00,,,0.00,Wunderground v.1.15,2013-07-02 01:10:00,
2013-07-01 20:15:00,79.5,55.7,30.04,SE,142,0.0,1.0,44,0.00,,,0.00,Wunderground v.1.15,2013-07-02 01:15:00,
2013-07-01 20:25:00,78.5,56.0,30.04,SE,142,0.0,0.0,46,0.00,,,0.00,Wunderground v.1.15,2013-07-02 01:25:00,
2013-07-01 20:30:00,78.0,56.1,30.04,SE,142,0.0,0.0,47,0.00,,,0.00,Wunderground v.1.15,2013-07-02 01:30:00,
2013-07-01 20:35:00,77.4,55.6,30.04,SE,142,0.0,0.0,47,0.00,,,0.00,Wunderground v.1.15,2013-07-02 01:35:00,
2013-07-01 20:40:00,76.9,55.1,30.04,SE,142,0.0,1.0,47,0.00,,,0.00,Wunderground v.1.15,2013-07-02 01:40:00,
2013-07-01 20:50:00,76.4,54.7,30.03,SE,142,1.0,1.0,47,0.00,,,0.00,Wunderground v.1.15,2013-07-02 01:50:00,
2013-07-01 21:00:00,76.2,55.1,30.04,SE,142,0.0,0.0,48,0.00,,,0.00,Wunderground v.1.15,2013-07-02 02:00:00,
2013-07-01 21:10:00,75.7,56.3,30.03,SE,142,0.0,0.0,51,0.00,,,0.00,Wunderground v.1.15,2013-07-02 02:10:00,
2013-07-01 21:20:00,74.8,56.0,30.03,SE,142,0.0,0.0,52,0.00,,,0.00,Wunderground v.1.15,2013-07-02 02:20:00,
2013-07-01 21:25:00,74.3,56.6,30.03,SE,142,0.0,0.0,54,0.00,,,0.00,Wunderground v.1.15,2013-07-02 02:25:00,
2013-07-01 21:30:00,73.8,56.1,30.04,SE,142,0.0,0.0,54,0.00,,,0.00,Wunderground v.1.15,2013-07-02 02:30:00,
2013-07-01 21:35:00,73.3,56.7,30.03,SE,142,0.0,0.0,56,0.00,,,0.00,Wunderground v.1.15,2013-07-02 02:35:00,
2013-07-01 21:40:00,72.8,56.7,30.03,SE,142,0.0,0.0,57,0.00,,,0.00,Wunderground v.1.15,2013-07-02 02:40:00,
2013-07-01 21:45:00,72.4,57.3,30.04,SE,142,0.0,0.0,59,0.00,,,0.00,Wunderground v.1.15,2013-07-02 02:45:00,
2013-07-01 21:55:00,71.5,56.9,30.04,SE,142,0.0,0.0,60,0.00,,,0.00,Wunderground v.1.15,2013-07-02 02:55:00,
2013-07-01 22:00:00,71.2,57.1,30.04,SE,142,0.0,0.0,61,0.00,,,0.00,Wunderground v.1.15,2013-07-02 03:00:00,
2013-07-01 22:10:00,70.7,57.5,30.04,SE,142,0.0,0.0,63,0.00,,,0.00,Wunderground v.1.15,2013-07-02 03:10:00,
2013-07-01 22:15:00,70.4,57.2,30.04,SE,142,0.0,0.0,63,0.00,,,0.00,Wunderground v.1.15,2013-07-02 03:15:00,
2013-07-01 22:25:00,69.8,57.5,30.04,SE,142,0.0,0.0,65,0.00,,,0.00,Wunderground v.1.15,2013-07-02 03:25:00,
2013-07-01 22:30:00,69.5,57.2,30.04,SE,142,0.0,0.0,65,0.00,,,0.00,Wunderground v.1.15,2013-07-02 03:30:00,
2013-07-01 22:35:00,69.4,57.5,30.04,SE,142,0.0,0.0,66,0.00,,,0.00,Wunderground v.1.15,2013-07-02 03:35:00,
2013-07-01 22:40:00,69.2,57.4,30.04,SE,142,0.0,0.0,66,0.00,,,0.00,Wunderground v.1.15,2013-07-02 03:40:00,
2013-07-01 22:45:00,69.0,57.6,30.04,SE,142,0.0,0.0,67,0.00,,,0.00,Wunderground v.1.15,2013-07-02 03:45:00,
2013-07-01 22:50:00,68.8,57.4,30.04,SE,142,0.0,0.0,67,0.00,,,0.00,Wunderground v.1.15,2013-07-02 03:50:00,
2013-07-01 23:00:00,68.2,57.2,30.05,SE,142,0.0,0.0,68,0.00,,,0.00,Wunderground v.1.15,2013-07-02 04:00:00,
2013-07-01 23:05:00,67.9,56.9,30.05,SE,142,0.0,0.0,68,0.00,,,0.00,Wunderground v.1.15,2013-07-02 04:05:00,
2013-07-01 23:10:00,67.6,57.5,30.04,SE,142,0.0,0.0,70,0.00,,,0.00,Wunderground v.1.15,2013-07-02 04:10:00,
2013-07-01 23:15:00,67.4,57.7,30.05,SE,142,0.0,0.0,71,0.00,,,0.00,Wunderground v.1.15,2013-07-02 04:15:00,
2013-07-01 23:20:00,67.2,57.9,30.04,SE,142,0.0,0.0,72,0.00,,,0.00,Wunderground v.1.15,2013-07-02 04:20:00,
2013-07-01 23:25:00,66.9,58.3,30.04,SE,142,0.0,0.0,74,0.00,,,0.00,Wunderground v.1.15,2013-07-02 04:25:00,
2013-07-01 23:30:00,66.7,58.5,30.04,SE,142,0.0,0.0,75,0.00,,,0.00,Wunderground v.1.15,2013-07-02 04:30:00,
2013-07-01 23:35:00,66.6,58.4,30.04,SE,142,0.0,0.0,75,0.00,,,0.00,Wunderground v.1.15,2013-07-02 04:35:00,
2013-07-01 23:40:00,66.4,58.2,30.04,SE,142,0.0,0.0,75,0.00,,,0.00,Wunderground v.1.15,2013-07-02 04:40:00,
2013-07-01 23:50:00,65.9,57.7,30.04,SE,142,0.0,0.0,75,0.00,,,0.00,Wunderground v.1.15,2013-07-02 04:50:00,
2013-07-01 23:55:00,65.6,57.5,30.04,SE,142,0.0,0.0,75,0.00,,,0.00,Wunderground v.1.15,2013-07-02 04:55:00,